createdAt,value
2022-12-04T00:03:17.174Z,82.78
2022-12-04T00:07:18.686Z,85.55
2022-12-04T00:11:24.321Z,85.22
2022-12-04T00:15:26.783Z,78.45
2022-12-04T00:19:28.497Z,78.22
2022-12-04T00:23:29.926Z,82.38
2022-12-04T00:27:31.381Z,81.65
2022-12-04T00:31:32.965Z,87.10
2022-12-04T00:35:34.447Z,79.78
2022-12-04T00:39:35.867Z,105.65
2022-12-04T00:43:37.637Z,85.30
2022-12-04T00:47:39.087Z,85.47
2022-12-04T00:51:40.625Z,87.90
2022-12-04T00:55:43.255Z,82.30
2022-12-04T00:59:44.691Z,88.18
2022-12-04T01:03:47.106Z,88.95
2022-12-04T01:07:48.629Z,91.57
2022-12-04T01:11:50.117Z,78.15
2022-12-04T01:15:52.027Z,94.70
2022-12-04T01:19:53.935Z,99.43
2022-12-04T01:23:55.639Z,91.47
2022-12-04T01:27:57.176Z,89.80
2022-12-04T01:31:58.775Z,101.22
2022-12-04T01:36:01.869Z,93.72
2022-12-04T01:40:04.631Z,94.63
2022-12-04T01:44:16.708Z,100.43
2022-12-04T01:48:39.973Z,94.97
2022-12-04T01:52:41.739Z,101.03
2022-12-04T01:56:58.335Z,93.18
2022-12-04T02:01:08.475Z,102.07
2022-12-04T02:05:14.339Z,104.22
2022-12-04T02:09:17.600Z,91.07
2022-12-04T02:14:00.440Z,105.57
2022-12-04T02:18:18.886Z,93.63
2022-12-04T02:23:00.977Z,97.22
2022-12-04T02:27:36.272Z,94.78
2022-12-04T02:31:50.921Z,104.38
2022-12-04T02:36:03.585Z,104.00
2022-12-04T02:40:07.437Z,104.40
2022-12-04T02:44:16.379Z,108.45
2022-12-04T02:48:20.214Z,79.97
2022-12-04T02:52:28.946Z,102.78
2022-12-04T02:56:34.479Z,113.03
2022-12-04T03:00:38.622Z,101.70
2022-12-04T03:04:42.456Z,120.38
2022-12-04T03:08:53.259Z,114.55
2022-12-04T03:13:00.303Z,103.25
2022-12-04T03:17:21.679Z,112.05
2022-12-04T03:21:28.162Z,114.93
2022-12-04T03:25:36.382Z,115.55
2022-12-04T03:29:52.739Z,129.32
2022-12-04T03:33:58.386Z,112.10
2022-12-04T03:38:38.201Z,101.30
2022-12-04T03:42:49.841Z,93.30
2022-12-04T03:47:15.969Z,123.03
2022-12-04T03:51:22.770Z,103.22
2022-12-04T03:55:41.801Z,103.85
2022-12-04T04:00:12.034Z,107.75
2022-12-04T04:04:19.618Z,96.32
2022-12-04T04:08:26.701Z,102.53
2022-12-04T04:12:33.684Z,107.63
2022-12-04T04:16:57.155Z,104.70
2022-12-04T04:21:19.491Z,105.57
2022-12-04T04:25:24.731Z,101.85
2022-12-04T04:29:26.945Z,106.93
2022-12-04T04:33:30.516Z,99.82
2022-12-04T04:37:53.148Z,107.82
2022-12-04T04:42:16.661Z,109.18
2022-12-04T04:46:28.701Z,106.13
2022-12-04T04:50:33.113Z,97.38
2022-12-04T04:54:36.939Z,99.25
2022-12-04T04:58:38.605Z,103.95
2022-12-04T05:02:40.311Z,98.70
2022-12-04T05:06:41.867Z,107.32
2022-12-04T05:10:43.330Z,99.18
2022-12-04T05:14:47.233Z,98.10
2022-12-04T05:19:39.569Z,100.18
2022-12-04T05:23:41.042Z,104.25
2022-12-04T05:27:42.667Z,93.35
2022-12-04T05:31:44.236Z,106.55
2022-12-04T05:35:45.720Z,101.82
2022-12-04T05:39:47.835Z,98.22
2022-12-04T05:43:49.283Z,97.28
2022-12-04T05:47:50.687Z,90.90
2022-12-04T05:51:52.082Z,95.43
2022-12-04T05:55:58.605Z,98.10
2022-12-04T06:00:00.071Z,109.65
2022-12-04T06:04:01.563Z,94.50
2022-12-04T06:08:03.120Z,91.22
2022-12-04T06:12:05.120Z,80.45
2022-12-04T06:16:06.691Z,87.63
2022-12-04T06:20:11.817Z,96.53
2022-12-04T06:24:22.310Z,84.38
2022-12-04T06:28:23.712Z,96.13
2022-12-04T06:32:25.141Z,94.80
2022-12-04T06:36:26.613Z,96.03
2022-12-04T06:40:28.058Z,102.80
2022-12-04T06:44:29.480Z,88.00
2022-12-04T06:48:31.242Z,89.72
2022-12-04T06:52:34.002Z,99.00
2022-12-04T06:56:35.557Z,110.38
2022-12-04T07:00:37.068Z,90.15
2022-12-04T07:04:38.561Z,93.88
2022-12-04T07:08:40.022Z,96.55
2022-12-04T07:12:41.492Z,95.30
2022-12-04T07:16:43.135Z,98.82
2022-12-04T07:20:44.687Z,93.30
2022-12-04T07:24:46.112Z,90.28
2022-12-04T07:28:48.280Z,107.15
2022-12-04T07:32:49.724Z,84.03
2022-12-04T07:36:51.191Z,102.53
2022-12-04T07:40:56.378Z,90.45
2022-12-04T07:44:57.815Z,90.82
2022-12-04T07:48:59.541Z,92.82
2022-12-04T07:53:01.012Z,106.93
2022-12-04T07:57:02.481Z,84.88
2022-12-04T08:01:20.604Z,110.55
2022-12-04T08:05:22.136Z,90.78
2022-12-04T08:09:23.573Z,89.35
2022-12-04T08:13:25.071Z,89.00
2022-12-04T08:17:26.919Z,99.97
2022-12-04T08:21:30.311Z,99.32
2022-12-04T08:25:31.730Z,89.68
2022-12-04T08:29:33.168Z,99.18
2022-12-04T08:33:34.979Z,88.97
2022-12-04T08:37:36.423Z,90.57
2022-12-04T08:41:38.064Z,104.43
2022-12-04T08:45:39.480Z,107.57
2022-12-04T08:49:40.902Z,93.53
2022-12-04T08:53:42.474Z,92.97
2022-12-04T08:57:43.900Z,98.32
2022-12-04T09:01:45.471Z,84.97
2022-12-04T09:05:47.395Z,103.10
2022-12-04T09:09:48.789Z,95.78
2022-12-04T09:13:50.793Z,99.47
2022-12-04T09:17:52.241Z,95.65
2022-12-04T09:21:54.774Z,82.25
2022-12-04T09:25:56.506Z,99.05
2022-12-04T09:29:58.199Z,86.03
2022-12-04T09:34:01.115Z,89.40
2022-12-04T09:38:02.541Z,95.28
2022-12-04T09:42:09.008Z,82.05
2022-12-04T09:46:18.799Z,85.80
2022-12-04T09:54:26.737Z,80.57
2022-12-04T09:58:41.769Z,86.55
2022-12-04T10:02:48.529Z,86.28
2022-12-04T10:06:49.960Z,89.78
2022-12-04T10:10:57.314Z,84.28
2022-12-04T10:15:37.000Z,87.13
2022-12-04T10:19:56.268Z,75.32
2022-12-04T10:24:06.736Z,77.50
2022-12-04T10:28:32.997Z,81.25
2022-12-04T10:32:35.120Z,88.13
2022-12-04T10:36:36.552Z,82.65
2022-12-04T10:40:44.220Z,85.38
2022-12-04T10:44:45.652Z,76.80
2022-12-04T10:48:50.627Z,85.95
2022-12-04T10:52:52.064Z,77.70
2022-12-04T10:57:05.881Z,88.97
2022-12-04T11:01:11.959Z,90.90
2022-12-04T11:05:28.957Z,84.68
2022-12-04T11:09:31.647Z,76.28
2022-12-04T11:13:33.715Z,71.03
2022-12-04T11:17:35.362Z,84.78
2022-12-04T11:21:38.767Z,68.00
2022-12-04T11:25:47.021Z,73.13
2022-12-04T11:29:49.967Z,66.50
2022-12-04T11:33:55.647Z,79.60
2022-12-04T11:38:07.402Z,72.30
2022-12-04T11:42:23.196Z,72.82
2022-12-04T11:46:28.071Z,79.68
2022-12-04T11:50:34.668Z,65.97
2022-12-04T11:54:42.284Z,74.90
2022-12-04T11:58:46.608Z,62.08
2022-12-04T12:03:11.940Z,73.90
2022-12-04T12:07:37.479Z,62.13
2022-12-04T12:11:48.939Z,76.38
2022-12-04T12:16:10.727Z,68.70
2022-12-04T12:20:33.476Z,70.32
2022-12-04T12:25:05.938Z,68.43
2022-12-04T12:29:29.360Z,67.25
2022-12-04T12:33:44.287Z,69.03
2022-12-04T12:37:57.458Z,69.60
2022-12-04T12:42:01.253Z,65.90
2022-12-04T12:46:11.544Z,72.75
2022-12-04T12:50:21.376Z,72.60
2022-12-04T12:54:33.879Z,70.63
2022-12-04T12:58:41.930Z,66.38
2022-12-04T13:02:50.295Z,62.55
2022-12-04T13:07:04.199Z,80.65
2022-12-04T13:11:13.473Z,63.88
2022-12-04T13:15:17.262Z,64.75
2022-12-04T13:19:29.333Z,68.25
2022-12-04T13:23:45.967Z,64.18
2022-12-04T13:28:10.597Z,67.78
2022-12-04T13:32:37.223Z,74.35
2022-12-04T13:36:58.885Z,74.63
2022-12-04T13:41:04.146Z,85.82
2022-12-04T13:45:26.515Z,83.03
2022-12-04T13:49:33.354Z,73.80
2022-12-04T13:53:37.706Z,72.13
2022-12-04T13:57:40.222Z,69.57
2022-12-04T14:01:46.666Z,70.60
2022-12-04T14:05:48.665Z,76.93
2022-12-04T14:09:53.382Z,81.85
2022-12-04T14:13:57.534Z,75.97
2022-12-04T14:18:11.053Z,72.25
2022-12-04T14:22:36.089Z,96.65
2022-12-04T14:27:10.558Z,85.38
2022-12-04T14:31:19.388Z,88.18
2022-12-04T14:35:24.474Z,78.22
2022-12-04T14:39:40.886Z,76.53
2022-12-04T14:43:45.339Z,78.47
2022-12-04T14:47:52.631Z,89.38
2022-12-04T14:52:00.295Z,88.50
2022-12-04T14:56:07.479Z,89.90
2022-12-04T15:00:22.373Z,78.95
2022-12-04T15:04:29.196Z,92.13
2022-12-04T15:08:30.828Z,91.50
2022-12-04T15:12:35.393Z,95.45
2022-12-04T15:16:36.848Z,97.10
2022-12-04T15:20:50.206Z,104.43
2022-12-04T15:24:55.686Z,141.95
2022-12-04T15:29:01.126Z,104.25
2022-12-04T15:33:03.411Z,106.93
2022-12-04T15:37:11.454Z,119.88
2022-12-04T15:41:42.379Z,114.43
2022-12-04T15:45:44.245Z,106.95
2022-12-04T15:49:45.703Z,122.00
2022-12-04T15:53:47.779Z,106.45
2022-12-04T15:58:08.612Z,118.40
2022-12-04T16:02:23.418Z,110.22
2022-12-04T16:06:30.509Z,120.95
2022-12-04T16:10:37.476Z,112.10
2022-12-04T16:15:00.648Z,119.85
2022-12-04T16:19:36.907Z,138.15
2022-12-04T16:23:38.324Z,120.50
2022-12-04T16:27:39.769Z,129.65
2022-12-04T16:31:41.346Z,126.68
2022-12-04T16:35:42.940Z,127.43
2022-12-04T16:39:45.002Z,125.53
2022-12-04T16:43:53.444Z,136.07
2022-12-04T16:47:54.853Z,140.38
2022-12-04T16:51:56.384Z,152.95
2022-12-04T16:55:58.016Z,161.80
2022-12-04T16:59:59.609Z,143.30
2022-12-04T17:04:01.310Z,137.90
2022-12-04T17:08:02.953Z,139.48
2022-12-04T17:12:04.572Z,134.77
2022-12-04T17:16:09.034Z,153.50
2022-12-04T17:20:13.309Z,159.43
2022-12-04T17:24:17.341Z,161.43
2022-12-04T17:28:22.059Z,131.73
2022-12-04T17:32:28.165Z,146.35
2022-12-04T17:36:29.635Z,145.20
2022-12-04T17:40:31.266Z,149.50
2022-12-04T17:44:33.160Z,144.60
2022-12-04T17:48:34.605Z,153.27
2022-12-04T17:52:36.119Z,148.27
2022-12-04T17:56:38.173Z,155.18
2022-12-04T18:00:39.670Z,154.98
2022-12-04T18:04:42.652Z,157.00
2022-12-04T18:08:49.808Z,158.35
2022-12-04T18:12:51.780Z,144.50
2022-12-04T18:16:54.969Z,142.15
2022-12-04T18:21:11.340Z,139.27
2022-12-04T18:25:12.798Z,138.40
2022-12-04T18:29:17.815Z,142.93
2022-12-04T18:33:19.286Z,161.20
2022-12-04T18:37:20.721Z,146.18
2022-12-04T18:41:22.788Z,159.93
2022-12-04T18:45:25.658Z,115.85
2022-12-04T18:49:27.137Z,126.63
2022-12-04T18:53:28.786Z,149.35
2022-12-04T18:57:30.222Z,142.98
2022-12-04T19:01:31.869Z,159.90
2022-12-04T19:05:33.491Z,160.20
2022-12-04T19:10:21.296Z,152.05
2022-12-04T19:13:58.280Z,139.77
2022-12-04T19:17:59.752Z,128.82
2022-12-04T19:22:02.049Z,133.35
2022-12-04T19:26:09.617Z,127.43
2022-12-04T19:30:11.399Z,147.90
2022-12-04T19:34:13.155Z,143.40
2022-12-04T19:38:14.629Z,116.65
2022-12-04T19:42:16.156Z,125.82
2022-12-04T19:46:21.263Z,126.38
2022-12-04T19:50:22.775Z,126.40
2022-12-04T19:54:26.053Z,120.25
2022-12-04T19:58:31.524Z,139.52
2022-12-04T20:02:39.627Z,142.90
2022-12-04T20:06:44.652Z,141.70
2022-12-04T20:10:46.129Z,138.07
2022-12-04T20:14:47.914Z,123.28
2022-12-04T20:18:49.644Z,127.97
2022-12-04T20:22:51.108Z,121.10
2022-12-04T20:26:52.533Z,131.25
2022-12-04T20:30:54.358Z,150.43
2022-12-04T20:34:55.898Z,127.20
2022-12-04T20:38:59.066Z,138.27
2022-12-04T20:43:00.507Z,112.95
2022-12-04T20:47:01.982Z,139.48
2022-12-04T20:51:03.464Z,132.35
2022-12-04T20:55:08.873Z,135.80
2022-12-04T20:59:13.111Z,129.38
2022-12-04T21:03:15.360Z,134.00
2022-12-04T21:07:16.966Z,134.70
2022-12-04T21:11:18.954Z,154.55
2022-12-04T21:15:39.031Z,132.40
2022-12-04T21:19:40.500Z,127.38
2022-12-04T21:23:41.939Z,135.65
2022-12-04T21:27:43.958Z,141.20
2022-12-04T21:31:45.554Z,125.03
2022-12-04T21:35:47.085Z,134.63
2022-12-04T21:39:48.896Z,126.20
2022-12-04T21:43:50.332Z,125.38
2022-12-04T21:47:54.788Z,139.38
2022-12-04T21:51:58.213Z,151.35
2022-12-04T21:56:03.794Z,156.30
2022-12-04T22:00:06.061Z,125.03
2022-12-04T22:04:07.573Z,137.52
2022-12-04T22:08:10.733Z,146.98
2022-12-04T22:12:41.241Z,139.07
2022-12-04T22:16:38.366Z,156.25
2022-12-04T22:20:43.357Z,136.68
2022-12-04T22:24:44.797Z,147.95
2022-12-04T22:28:46.541Z,138.70
2022-12-04T22:32:48.021Z,133.18
2022-12-04T22:36:49.927Z,134.38
2022-12-04T22:40:51.586Z,133.07
2022-12-04T22:44:53.022Z,145.30
2022-12-04T22:48:54.453Z,154.20
2022-12-04T22:52:55.863Z,143.70
2022-12-04T22:56:57.295Z,146.20
2022-12-04T23:00:58.726Z,144.10
2022-12-04T23:05:00.288Z,156.98
2022-12-04T23:09:05.936Z,136.45
2022-12-04T23:13:07.384Z,161.23
2022-12-04T23:17:08.983Z,133.90
2022-12-04T23:21:13.506Z,153.43
2022-12-04T23:25:15.142Z,143.35
2022-12-04T23:29:44.877Z,133.65
2022-12-04T23:33:39.675Z,155.38
2022-12-04T23:37:41.096Z,159.15
2022-12-04T23:41:42.550Z,169.38
2022-12-04T23:45:44.473Z,125.50
2022-12-04T23:49:45.955Z,140.82
2022-12-04T23:53:50.224Z,153.27
2022-12-04T23:57:52.076Z,146.15
